LKMT/OSR METAR and TAF weather

Enter ICAO airport designator
Station Type Date Time Source
LKMT METAR 2021/09/25 11:30 UTC NOAA

LKMT 251130Z 23012KT 9999 FEW033 BKN046 20/12 Q1018 NOSIG


Station Type Date Time Source
LKMT Decoded METAR 2021/09/25 11:30 UTC NOAA

Ostrava / Mosnov, Czech Republic (LKMT) 49-41N 018-07E 256M
Sep 25, 2021 - 07:30 AM EDT / 2021.09.25 1130 UTC
Wind: from the SW (230 degrees) at 14 MPH (12 KT):0
Visibility: greater than 7 mile(s):0
Sky conditions: mostly cloudy
Temperature: 68 F (20 C)
Dew Point: 53 F (12 C)
Relative Humidity: 59%
Pressure (altimeter): 30.06 in. Hg (1018 hPa)
ob: LKMT 251130Z 23012KT 9999 FEW033 BKN046 20/12 Q1018 NOSIG
cycle: 11

Station Type Date Time Source
LKMT TAF 2021/09/25 12:15 UTC NOAA

TAF LKMT 251100Z 2512/2618 22009KT 9999 SCT033
TEMPO 2512/2515 22012G22KT
BECMG 2612/2615 CAVOK
BECMG 2515/2517 21004KT
BECMG 2522/2600 3000 BR NSC
TEMPO 2602/2607 1200 BR BKN005
BECMG 2607/2609 VRB02KT CAVOK

Example: see airport list